Aérodrome :
LOGIN :

S'inscrire | Disclaimer

   EN    FR    IT 

 










Légende :    VFR   VFR Marginal   IFR   IFR Intensif   IFR Très Intensif
Visi : 
Plafond : 
>= 8 km
>= 3000ft
5 à 8 km
1000 à 3000 ft
1500m à 5 km
500 à 1000 ft
800 à 1500m
200 à 500 ft
< 800m
< 200 ft
Symboles :   Orages  Brouillard  Fortes neiges  Fortes précipitations  Vent > 20 kt
SIGMETs :   Divers  Orages  Givrage  Turbulence  Onde Orograph.  Cendres Volcan.






- Altitude de l'aérodrome : 446 ft
- Code IATA : VNE


LFRV - Vannes-Meucon

DERNIER METAR :
  • 230100Z AUTO 13009KT 9999 OVC011 10/09 Q0982

METARs EXPIRÉS :
  • 230030Z AUTO 13008KT 9999 OVC010 10/09 Q0982
  • 230000Z AUTO 13010KT 9999 OVC009 10/09 Q0982
  • 222330Z AUTO 14010KT 9999 OVC008 10/09 Q0982
  • 222300Z AUTO 14009KT 7000 -RA OVC007 09/09 Q0982
  • 222230Z AUTO 16007KT 110V210 5000 -RA BR BKN006/// BKN011/// OVC016/// ///TCU 09/09 Q0981

TAF N/A



MET'MAP, la Météo Aéronautique d'un coup d'oeil ! - Copyright ORBIFLY Décembre 2007 - Disclaimer

ORBIFLY MET'MAP TEAM :

Programmation & Développement : Alexandra Zaïnal
Conception & Développement : Baudouin d'Aumeries
Co-Programmation & Développement : Marc-Olivier Méhu
Soutien technique & logistique : Manuel Goepfert

Contact : metmap@orbifly.com




SOURCES & CREDITS :

   NOAA